Time;durP1;ratioP1;P1;durP2;ratioP2;P2;SDS_P1;SDS_P2;PMS_P1;PMS_P2;Temp;Humidity;BMP_temperature;BMP_pressure;BME280_temperature;BME280_humidity;BME280_pressure;Samples;Min_cycle;Max_cycle;Signal;HPM_P1;HPM_P2
2023/02/18 00:01:52;;;;;;;32.65;15.65;;;;;;;5.64;42.24;95683.00;5108728;28;20083;-77
2023/02/18 00:04:18;;;;;;;34.08;15.40;;;;;;;5.54;42.62;95679.09;5109465;27;20023;-80
2023/02/18 00:06:45;;;;;;;27.48;15.35;;;;;;;5.49;42.72;95678.69;5107677;28;20032;-77
2023/02/18 00:09:11;;;;;;;27.02;13.63;;;;;;;5.53;42.74;95677.53;5110439;28;20059;-80
2023/02/18 00:11:37;;;;;;;26.05;14.52;;;;;;;5.52;42.67;95669.75;5109495;28;20024;-78
2023/02/18 00:14:04;;;;;;;34.13;15.38;;;;;;;5.47;42.95;95667.38;5107806;28;20027;-79
2023/02/18 00:16:30;;;;;;;31.92;14.65;;;;;;;5.39;42.97;95666.59;5106732;28;20118;-78
2023/02/18 00:18:57;;;;;;;30.17;14.65;;;;;;;5.37;43.22;95660.72;5108734;28;20068;-80
2023/02/18 00:21:23;;;;;;;37.25;16.58;;;;;;;5.29;43.25;95667.34;5109202;28;20034;-79
2023/02/18 00:23:49;;;;;;;27.48;15.10;;;;;;;5.31;43.35;95665.78;5106403;28;20020;-79
2023/02/18 00:26:16;;;;;;;29.33;16.60;;;;;;;5.26;43.50;95646.28;5107365;28;20059;-79
2023/02/18 00:28:41;;;;;;;23.65;14.88;;;;;;;5.22;43.61;95646.28;5107279;28;20477;-79
2023/02/18 00:31:13;;;;;;;30.67;15.15;;;;;;;5.18;43.55;95639.25;5108917;28;20019;-79
2023/02/18 00:33:38;;;;;;;28.45;17.50;;;;;;;5.21;43.68;95633.03;5089502;28;20020;-78
2023/02/18 00:36:06;;;;;;;33.72;17.35;;;;;;;5.18;43.51;95644.72;5089577;28;20508;-79
2023/02/18 00:38:32;;;;;;;31.38;16.58;;;;;;;5.06;43.74;95637.66;5106909;28;20078;-78
2023/02/18 00:40:58;;;;;;;32.20;17.25;;;;;;;5.03;43.94;95641.94;5107031;28;20399;-78
2023/02/18 00:43:23;;;;;;;29.00;15.60;;;;;;;5.00;44.12;95628.31;5108189;28;20066;-78
2023/02/18 00:45:49;;;;;;;30.58;17.30;;;;;;;4.99;43.89;95643.88;5105618;28;20153;-78
2023/02/18 00:48:14;;;;;;;29.10;15.20;;;;;;;4.96;44.13;95639.19;5108869;28;20480;-78
2023/02/18 00:50:39;;;;;;;26.30;15.50;;;;;;;4.97;44.19;95646.19;5106660;28;20024;-78
2023/02/18 00:53:05;;;;;;;32.72;15.57;;;;;;;4.85;44.34;95635.63;5106482;28;20506;-78
2023/02/18 00:55:30;;;;;;;30.48;15.95;;;;;;;4.86;44.50;95631.75;5107532;28;20063;-78
2023/02/18 00:57:55;;;;;;;24.83;13.23;;;;;;;4.88;44.63;95634.09;5107628;28;20032;-79
2023/02/18 01:00:21;;;;;;;28.70;16.58;;;;;;;4.90;44.58;95629.03;5107874;28;20508;-79
2023/02/18 01:02:47;;;;;;;26.85;14.80;;;;;;;4.83;44.52;95632.53;5107127;28;20023;-78
2023/02/18 01:05:12;;;;;;;25.60;13.65;;;;;;;4.73;44.92;95633.25;5106939;28;20497;-80
2023/02/18 01:07:38;;;;;;;29.55;14.55;;;;;;;4.79;44.82;95629.00;5110958;28;20024;-78
2023/02/18 01:10:04;;;;;;;26.33;15.07;;;;;;;4.79;44.76;95629.78;5108467;28;20028;-79
2023/02/18 01:12:30;;;;;;;26.10;15.15;;;;;;;4.77;44.88;95623.16;5107489;28;20028;-80
2023/02/18 01:14:55;;;;;;;24.60;14.18;;;;;;;4.72;44.73;95628.97;5106862;28;20479;-79
2023/02/18 01:17:20;;;;;;;22.83;13.18;;;;;;;4.65;44.97;95626.22;5107620;28;20324;-79
2023/02/18 01:19:46;;;;;;;24.00;14.00;;;;;;;4.64;44.97;95617.22;5107146;27;20039;-79
2023/02/18 01:22:11;;;;;;;25.90;13.98;;;;;;;4.63;44.86;95618.41;5108047;28;20406;-78
2023/02/18 01:24:37;;;;;;;28.42;14.30;;;;;;;4.59;45.06;95627.72;5105108;28;20537;-79
2023/02/18 01:27:03;;;;;;;24.35;13.55;;;;;;;4.57;45.04;95622.66;5107630;28;20117;-80
2023/02/18 01:29:28;;;;;;;27.63;14.43;;;;;;;4.60;45.15;95616.47;5106164;28;20038;-80
2023/02/18 01:31:54;;;;;;;29.63;15.90;;;;;;;4.55;45.38;95614.09;5106572;28;20038;-79
2023/02/18 01:34:19;;;;;;;33.95;16.95;;;;;;;4.50;45.15;95609.78;5106558;28;20506;-80
2023/02/18 01:36:44;;;;;;;29.05;15.68;;;;;;;4.55;45.29;95621.47;5106225;28;20031;-79
2023/02/18 01:39:10;;;;;;;29.85;15.80;;;;;;;4.46;45.41;95622.59;5106535;28;20242;-79
2023/02/18 01:41:35;;;;;;;28.77;15.27;;;;;;;4.43;45.52;95623.38;5112099;28;20024;-79
2023/02/18 01:44:15;;;;;;;28.10;15.25;;;;;;;4.39;45.54;95622.56;5127914;28;20032;-78
2023/02/18 01:46:41;;;;;;;30.05;15.77;;;;;;;4.42;45.82;95627.25;5128668;28;20031;-80
2023/02/18 01:49:06;;;;;;;27.30;14.88;;;;;;;4.36;45.82;95631.50;5108417;28;20020;-78
2023/02/18 01:51:38;;;;;;;30.27;16.15;;;;;;;4.36;45.87;95628.78;5105246;28;20028;-80
2023/02/18 01:54:06;;;;;;;27.67;15.25;;;;;;;4.35;45.77;95638.06;5105443;28;20098;-78
2023/02/18 01:56:39;;;;;;;26.58;14.25;;;;;;;4.30;46.06;95638.47;5107166;28;20024;-79
2023/02/18 01:59:09;;;;;;;27.53;15.37;;;;;;;4.25;46.15;95628.69;5104350;28;20100;-79
2023/02/18 02:01:35;;;;;;;25.75;13.75;;;;;;;4.27;45.95;95633.75;5106283;28;20028;-79
2023/02/18 02:04:00;;;;;;;25.20;13.48;;;;;;;4.22;45.89;95628.66;5107794;28;20031;-79
2023/02/18 02:06:26;;;;;;;26.00;13.00;;;;;;;4.19;46.03;95624.00;5109818;28;20028;-78
2023/02/18 02:08:57;;;;;;;23.27;12.82;;;;;;;4.21;46.10;95621.66;5104934;28;20059;-78
2023/02/18 02:11:44;;;;;;;22.48;11.23;;;;;;;4.22;46.10;95618.56;5105773;28;20045;-78
2023/02/18 02:14:51;;;;;;;19.50;10.65;;;;;;;4.19;46.10;95629.44;5107203;28;20414;-79
2023/02/18 02:17:29;;;;;;;17.67;11.00;;;;;;;4.16;46.11;95628.25;5042836;28;20060;-78
2023/02/18 02:20:01;;;;;;;17.30;9.98;;;;;;;4.21;45.98;95627.13;5101876;28;20067;-79
2023/02/18 02:22:48;;;;;;;23.00;12.18;;;;;;;4.17;46.14;95631.75;5106857;28;20047;-80
2023/02/18 02:25:34;;;;;;;20.00;10.95;;;;;;;4.11;46.43;95633.25;5105667;28;20088;-78
2023/02/18 02:28:33;;;;;;;22.58;12.38;;;;;;;4.07;46.52;95624.28;5105963;28;20040;-80
2023/02/18 02:31:12;;;;;;;20.55;11.85;;;;;;;4.00;46.47;95628.50;5107497;28;20028;-80
2023/02/18 02:34:04;;;;;;;23.17;11.75;;;;;;;3.97;46.75;95626.56;5104377;28;20042;-80
2023/02/18 02:36:40;;;;;;;19.63;11.20;;;;;;;3.96;46.87;95618.78;5077845;28;20032;-79
2023/02/18 02:39:25;;;;;;;24.65;11.32;;;;;;;4.00;46.84;95617.63;5104191;28;20028;-77
2023/02/18 02:42:14;;;;;;;21.67;11.02;;;;;;;4.03;46.62;95605.22;5105933;28;20028;-79
2023/02/18 02:44:48;;;;;;;19.42;10.18;;;;;;;4.07;46.57;95608.75;5107049;28;20032;-80
2023/02/18 02:47:23;;;;;;;21.05;10.98;;;;;;;4.01;46.75;95602.09;5103782;28;20042;-79
2023/02/18 02:49:54;;;;;;;20.55;11.80;;;;;;;4.00;46.70;95597.81;5105681;28;20470;-79
2023/02/18 02:52:24;;;;;;;21.77;12.32;;;;;;;4.00;46.80;95606.75;5104588;28;20034;-81
2023/02/18 02:54:50;;;;;;;19.45;10.52;;;;;;;3.99;46.94;95615.28;5104237;28;20492;-78
2023/02/18 02:57:16;;;;;;;20.50;10.73;;;;;;;3.99;46.49;95621.50;5105161;28;20397;-79
2023/02/18 02:59:44;;;;;;;21.38;10.88;;;;;;;3.95;47.08;95620.69;5108384;28;20035;-79
2023/02/18 03:02:18;;;;;;;18.83;11.50;;;;;;;4.00;46.92;95623.06;5112706;28;20023;-80
2023/02/18 03:05:09;;;;;;;19.33;11.13;;;;;;;3.92;47.07;95617.97;5109281;28;20103;-80
2023/02/18 03:07:54;;;;;;;22.90;11.40;;;;;;;3.95;47.05;95615.25;5110003;28;20035;-80
2023/02/18 03:10:25;;;;;;;17.30;10.85;;;;;;;3.95;47.23;95617.19;5108678;28;20387;-80
2023/02/18 03:13:21;;;;;;;21.30;11.93;;;;;;;3.93;47.21;95605.91;5108909;28;20050;-79
2023/02/18 03:16:14;;;;;;;20.52;11.35;;;;;;;3.88;47.19;95609.75;5087623;28;20044;-80
2023/02/18 03:18:45;;;;;;;20.88;11.90;;;;;;;3.85;47.52;95621.41;5109941;28;20110;-78
2023/02/18 03:21:18;;;;;;;20.10;11.68;;;;;;;3.86;47.32;95633.06;5109096;28;20028;-78
2023/02/18 03:23:56;;;;;;;21.85;10.80;;;;;;;3.84;47.65;95640.81;5109538;28;20035;-80
2023/02/18 03:26:24;;;;;;;18.35;11.88;;;;;;;3.80;47.44;95638.09;5108834;28;20029;-79
2023/02/18 03:28:50;;;;;;;20.25;11.02;;;;;;;3.76;47.73;95650.09;5108384;28;20549;-79
2023/02/18 03:31:19;;;;;;;26.02;12.73;;;;;;;3.66;47.75;95651.53;5109636;28;20050;-80
2023/02/18 03:33:49;;;;;;;23.45;11.43;;;;;;;3.61;47.92;95652.69;5107399;28;20110;-79
2023/02/18 03:36:16;;;;;;;16.45;10.50;;;;;;;3.63;47.91;95658.53;5108184;28;20054;-79
2023/02/18 03:38:45;;;;;;;21.92;12.23;;;;;;;3.63;48.04;95669.41;5090245;28;20032;-79
2023/02/18 03:41:11;;;;;;;21.40;12.32;;;;;;;3.62;47.97;95662.41;5108388;28;20028;-78
2023/02/18 03:43:36;;;;;;;23.52;12.48;;;;;;;3.64;47.88;95656.56;5106724;28;20526;-80
2023/02/18 03:46:02;;;;;;;24.45;13.25;;;;;;;3.62;47.85;95662.41;5109208;28;20379;-79
2023/02/18 03:48:28;;;;;;;22.45;12.60;;;;;;;3.60;47.81;95661.97;5107662;28;20062;-81
2023/02/18 03:50:53;;;;;;;26.40;13.25;;;;;;;3.65;47.79;95669.78;5107676;28;20413;-78
2023/02/18 03:53:18;;;;;;;20.25;11.95;;;;;;;3.66;47.63;95665.13;5108868;28;20182;-79
2023/02/18 03:55:44;;;;;;;23.27;12.85;;;;;;;3.65;47.67;95672.50;5107179;28;20108;-79
2023/02/18 03:58:09;;;;;;;23.27;13.15;;;;;;;3.68;47.33;95666.34;5108855;28;20034;-78
2023/02/18 04:00:35;;;;;;;21.15;11.77;;;;;;;3.69;47.65;95662.47;5111057;28;20059;-79
2023/02/18 04:03:00;;;;;;;23.38;12.07;;;;;;;3.71;47.63;95649.25;5109483;28;20482;-78
2023/02/18 04:05:26;;;;;;;22.10;11.77;;;;;;;3.70;47.74;95663.25;5108239;28;20402;-78
2023/02/18 04:07:51;;;;;;;22.98;12.35;;;;;;;3.68;47.73;95657.41;5118274;28;20041;-78
2023/02/18 04:10:17;;;;;;;20.45;11.43;;;;;;;3.61;47.94;95646.44;5130516;28;20031;-78
2023/02/18 04:12:42;;;;;;;18.25;10.85;;;;;;;3.62;47.89;95651.53;5131517;28;20063;-80
2023/02/18 04:15:08;;;;;;;21.80;11.13;;;;;;;3.64;47.82;95653.88;5110097;28;20111;-79
2023/02/18 04:17:34;;;;;;;20.88;10.93;;;;;;;3.64;47.79;95651.13;5106762;28;20026;-80
2023/02/18 04:20:00;;;;;;;17.70;10.20;;;;;;;3.62;47.88;95631.72;5091686;28;20027;-80
2023/02/18 04:22:25;;;;;;;19.75;9.93;;;;;;;3.61;47.81;95624.69;5107422;28;20027;-79
2023/02/18 04:24:51;;;;;;;18.50;10.20;;;;;;;3.65;47.66;95629.00;5107659;28;20031;-77
2023/02/18 04:27:16;;;;;;;16.98;9.25;;;;;;;3.70;47.68;95617.00;5089884;28;20020;-79
2023/02/18 04:29:42;;;;;;;15.80;9.07;;;;;;;3.72;47.44;95625.56;5108940;28;20537;-78
2023/02/18 04:32:07;;;;;;;19.83;10.02;;;;;;;3.77;47.57;95624.44;5108870;28;20119;-78
2023/02/18 04:34:33;;;;;;;20.15;11.63;;;;;;;3.77;47.83;95625.22;5107867;28;20096;-78
2023/02/18 04:36:58;;;;;;;28.48;14.45;;;;;;;3.71;47.82;95629.44;5109009;28;20435;-80
2023/02/18 04:39:23;;;;;;;22.70;13.48;;;;;;;3.78;47.97;95634.16;5106502;28;20110;-79
2023/02/18 04:41:49;;;;;;;25.38;14.50;;;;;;;3.73;48.21;95632.59;5109169;28;20477;-78
2023/02/18 04:44:14;;;;;;;25.05;14.18;;;;;;;3.73;48.37;95633.38;5089384;28;20016;-79
2023/02/18 04:46:40;;;;;;;25.13;13.70;;;;;;;3.72;48.67;95625.56;5108462;28;20397;-78
2023/02/18 04:49:05;;;;;;;22.05;12.93;;;;;;;3.75;48.58;95640.38;5106899;28;20063;-79
2023/02/18 04:51:30;;;;;;;27.05;15.40;;;;;;;3.76;48.32;95644.63;5107552;28;20371;-79
2023/02/18 04:53:56;;;;;;;28.02;15.52;;;;;;;3.77;48.33;95659.78;5108442;28;20020;-80
2023/02/18 04:56:21;;;;;;;28.67;14.90;;;;;;;3.81;48.57;95653.25;5110450;28;20501;-78
2023/02/18 04:58:47;;;;;;;30.95;15.90;;;;;;;3.77;48.35;95660.56;5109542;28;20031;-79
2023/02/18 05:01:12;;;;;;;31.65;16.92;;;;;;;3.75;48.34;95665.63;5107006;28;20190;-77
2023/02/18 05:03:37;;;;;;;28.35;16.42;;;;;;;3.76;48.41;95680.78;5108534;28;20036;-79
2023/02/18 05:06:03;;;;;;;30.83;16.63;;;;;;;3.76;48.29;95671.84;5106495;28;20585;-80
2023/02/18 05:08:28;;;;;;;28.83;16.67;;;;;;;3.78;48.29;95664.84;5107644;28;20027;-78
2023/02/18 05:10:54;;;;;;;26.70;16.42;;;;;;;3.81;48.18;95663.34;5106466;28;20494;-79
2023/02/18 05:13:19;;;;;;;31.33;17.35;;;;;;;3.81;48.17;95666.06;5106396;28;20122;-79
2023/02/18 05:15:45;;;;;;;26.35;15.50;;;;;;;3.76;48.22;95661.75;5108216;28;20377;-80
2023/02/18 05:18:10;;;;;;;29.00;17.05;;;;;;;3.80;48.00;95651.69;5104967;28;20028;-80
2023/02/18 05:20:36;;;;;;;31.48;16.00;;;;;;;3.84;47.93;95633.47;5107894;28;20027;-80
2023/02/18 05:23:01;;;;;;;23.40;14.70;;;;;;;3.89;47.73;95646.69;5104431;28;20031;-80
2023/02/18 05:25:26;;;;;;;29.30;15.80;;;;;;;3.86;47.87;95643.97;5105796;28;20076;-80
2023/02/18 05:27:52;;;;;;;24.73;15.75;;;;;;;3.91;47.83;95640.88;5107252;28;20147;-79
2023/02/18 05:30:24;;;;;;;26.17;13.20;;;;;;;3.82;47.96;95643.13;5108853;28;20046;-79
2023/02/18 05:32:50;;;;;;;25.90;14.10;;;;;;;3.73;48.25;95632.59;5110669;28;20688;-79
2023/02/18 05:35:16;;;;;;;22.95;14.10;;;;;;;3.71;48.61;95637.59;5109951;28;20034;-79
2023/02/18 05:37:41;;;;;;;25.65;14.75;;;;;;;3.69;48.63;95645.38;5107083;28;20108;-79
2023/02/18 05:40:08;;;;;;;25.40;14.88;;;;;;;3.72;48.72;95642.66;5113795;28;20594;-80
2023/02/18 05:42:34;;;;;;;25.15;15.07;;;;;;;3.79;48.52;95636.53;5109340;28;20144;-79
2023/02/18 05:44:59;;;;;;;25.73;13.82;;;;;;;3.90;48.41;95639.31;5113783;28;20481;-79
2023/02/18 05:47:24;;;;;;;27.13;14.70;;;;;;;3.97;48.46;95647.53;5111003;28;20087;-79
2023/02/18 05:49:50;;;;;;;21.98;14.13;;;;;;;3.98;48.47;95655.31;5117903;28;20059;-80
2023/02/18 05:52:16;;;;;;;26.73;14.63;;;;;;;4.01;48.50;95664.66;5108917;28;20054;-78
2023/02/18 05:54:43;;;;;;;27.50;14.50;;;;;;;4.04;48.61;95674.03;5111959;28;20038;-79
2023/02/18 05:57:09;;;;;;;29.13;15.77;;;;;;;4.16;48.46;95671.78;5106932;28;20024;-79
2023/02/18 05:59:35;;;;;;;26.45;15.35;;;;;;;4.19;48.06;95664.81;5105814;28;20067;-79
2023/02/18 06:02:00;;;;;;;26.05;15.95;;;;;;;4.31;48.00;95680.84;5106604;28;20027;-80
2023/02/18 06:04:26;;;;;;;30.05;15.15;;;;;;;4.40;47.74;95673.13;5102238;28;20023;-80
2023/02/18 06:06:53;;;;;;;24.50;14.73;;;;;;;4.50;47.39;95650.63;5108247;28;20419;-78
2023/02/18 06:09:18;;;;;;;25.92;14.40;;;;;;;4.61;47.29;95667.03;5112357;28;20039;-79
2023/02/18 06:11:44;;;;;;;23.08;13.20;;;;;;;4.74;46.73;95670.22;5106958;28;20099;-79
2023/02/18 06:14:09;;;;;;;24.40;15.18;;;;;;;4.78;46.82;95677.25;5107213;28;20500;-78
2023/02/18 06:16:35;;;;;;;24.73;14.02;;;;;;;4.86;46.86;95678.06;5106877;28;20028;-80
2023/02/18 06:19:00;;;;;;;25.00;14.05;;;;;;;4.88;46.62;95667.56;5107071;28;20023;-80
2023/02/18 06:21:26;;;;;;;29.33;16.65;;;;;;;4.97;46.78;95678.88;5105263;28;20410;-80
2023/02/18 06:23:51;;;;;;;26.80;16.13;;;;;;;5.05;46.65;95655.97;5106204;28;20552;-79
2023/02/18 06:26:18;;;;;;;25.90;14.38;;;;;;;5.19;45.99;95659.91;5107731;28;20077;-79
2023/02/18 06:28:43;;;;;;;25.20;14.07;;;;;;;5.22;45.68;95657.19;5105292;28;20393;-79
2023/02/18 06:31:09;;;;;;;29.08;14.30;;;;;;;5.26;45.53;95657.97;5105630;28;20115;-79
2023/02/18 06:33:34;;;;;;;21.23;12.93;;;;;;;5.31;45.40;95649.41;5108660;28;20036;-79
2023/02/18 06:36:05;;;;;;;24.67;14.00;;;;;;;5.39;45.14;95644.78;5130104;28;20023;-79
2023/02/18 06:38:31;;;;;;;24.25;12.88;;;;;;;5.47;44.76;95653.75;5136571;28;20281;-78
2023/02/18 06:40:56;;;;;;;27.85;13.52;;;;;;;5.52;44.85;95664.28;5122485;28;20359;-79
2023/02/18 06:43:22;;;;;;;25.40;13.73;;;;;;;5.53;44.94;95661.16;5115541;28;20047;-81
2023/02/18 06:45:47;;;;;;;27.92;14.80;;;;;;;5.59;45.07;95675.22;5110162;28;20081;-78
2023/02/18 06:48:13;;;;;;;25.63;15.68;;;;;;;5.67;44.86;95667.81;5111172;28;20024;-79
2023/02/18 06:50:40;;;;;;;21.25;12.45;;;;;;;5.76;44.28;95660.03;5110796;28;20023;-81
2023/02/18 06:53:05;;;;;;;26.55;14.52;;;;;;;5.85;44.06;95644.09;5111263;28;20840;-78
2023/02/18 06:55:31;;;;;;;29.83;17.65;;;;;;;5.84;43.92;95642.50;5110479;28;20092;-79
2023/02/18 06:57:56;;;;;;;30.85;18.13;;;;;;;5.85;43.74;95639.41;5110066;28;20462;-79
2023/02/18 07:00:22;;;;;;;31.75;16.70;;;;;;;6.00;43.95;95653.84;5110881;28;20035;-78
2023/02/18 07:02:47;;;;;;;29.15;17.08;;;;;;;6.08;43.86;95655.41;5109213;28;20156;-80
2023/02/18 07:05:13;;;;;;;32.97;18.08;;;;;;;6.18;43.80;95653.84;5110953;28;20050;-78
2023/02/18 07:07:38;;;;;;;28.98;15.43;;;;;;;6.34;44.15;95661.63;5109883;27;20019;-79
2023/02/18 07:10:05;;;;;;;30.73;18.52;;;;;;;6.35;43.67;95655.00;5110489;28;20055;-81
2023/02/18 07:12:30;;;;;;;42.00;22.80;;;;;;;6.39;43.35;95645.63;5109680;27;20027;-79
2023/02/18 07:14:55;;;;;;;33.00;21.80;;;;;;;6.46;43.21;95644.84;5109697;28;20450;-78
2023/02/18 07:17:21;;;;;;;34.75;20.90;;;;;;;6.52;43.14;95643.28;5109786;28;20027;-79
2023/02/18 07:19:46;;;;;;;35.13;21.25;;;;;;;6.61;43.17;95638.19;5110014;28;20106;-81
2023/02/18 07:22:11;;;;;;;31.60;19.63;;;;;;;6.69;43.38;95644.41;5110370;28;20486;-80
2023/02/18 07:24:37;;;;;;;34.65;19.65;;;;;;;6.79;43.18;95635.41;5107751;28;20023;-80
2023/02/18 07:27:02;;;;;;;35.42;19.63;;;;;;;6.89;42.58;95644.75;5108701;28;20024;-80
2023/02/18 07:29:29;;;;;;;37.03;20.30;;;;;;;7.02;42.75;95647.81;5113829;28;20032;-79
2023/02/18 07:31:55;;;;;;;36.30;19.25;;;;;;;7.12;42.62;95652.47;5110606;28;20106;-80
2023/02/18 07:34:20;;;;;;;39.78;21.25;;;;;;;7.25;42.26;95652.81;5117629;28;20546;-80
2023/02/18 07:36:47;;;;;;;36.50;20.25;;;;;;;7.39;42.05;95650.78;5115684;28;20023;-80
2023/02/18 07:39:12;;;;;;;40.75;21.05;;;;;;;7.53;41.90;95657.38;5108751;28;20028;-78
2023/02/18 07:41:38;;;;;;;37.35;21.52;;;;;;;7.65;41.46;95654.16;5108384;28;20100;-79
2023/02/18 07:44:04;;;;;;;36.25;20.95;;;;;;;7.78;41.15;95662.69;5109303;28;20112;-79
2023/02/18 07:46:29;;;;;;;31.33;19.55;;;;;;;7.92;40.76;95666.09;5108902;28;20027;-79
2023/02/18 07:48:56;;;;;;;36.75;21.15;;;;;;;8.01;40.70;95657.44;5113410;28;20023;-81
2023/02/18 07:51:22;;;;;;;37.10;21.27;;;;;;;8.21;40.55;95661.19;5091266;28;20465;-78
2023/02/18 07:53:47;;;;;;;41.95;21.65;;;;;;;8.29;40.39;95666.59;5108636;28;20016;-79
2023/02/18 07:56:13;;;;;;;36.25;22.20;;;;;;;8.44;40.53;95652.41;5109128;28;20028;-79
2023/02/18 07:58:38;;;;;;;38.15;21.50;;;;;;;8.55;40.23;95651.53;5108355;28;20024;-80
2023/02/18 08:01:08;;;;;;;36.63;19.88;;;;;;;8.67;39.87;95651.81;5109597;28;20031;-78
2023/02/18 08:03:34;;;;;;;33.30;20.30;;;;;;;8.71;39.87;95649.78;5089551;28;20024;-79
2023/02/18 08:06:00;;;;;;;34.20;20.15;;;;;;;8.84;39.70;95668.50;5109574;27;20157;-79
2023/02/18 08:08:28;;;;;;;27.55;18.45;;;;;;;8.96;39.69;95654.25;5107646;28;20066;-80
2023/02/18 08:10:55;;;;;;;28.98;16.20;;;;;;;9.25;39.08;95654.69;5108282;28;20027;-80
2023/02/18 08:13:20;;;;;;;25.80;12.95;;;;;;;9.28;38.91;95648.38;5090128;28;20035;-80
2023/02/18 08:15:46;;;;;;;21.77;11.15;;;;;;;9.51;38.34;95645.72;5073426;28;20032;-80
2023/02/18 08:18:17;;;;;;;22.83;12.32;;;;;;;9.78;38.08;95653.19;5109402;28;20435;-79
2023/02/18 08:20:42;;;;;;;23.55;11.48;;;;;;;9.91;37.93;95647.91;5107964;28;20037;-79
2023/02/18 08:23:09;;;;;;;22.92;12.25;;;;;;;9.99;37.76;95630.94;5090550;28;20020;-78
2023/02/18 08:25:34;;;;;;;23.45;13.45;;;;;;;10.08;37.69;95628.41;5106992;28;20066;-80
2023/02/18 08:28:00;;;;;;;26.63;12.93;;;;;;;10.25;37.37;95634.06;5108745;28;20462;-81
2023/02/18 08:30:26;;;;;;;24.17;12.30;;;;;;;10.34;37.27;95634.31;5108597;28;20026;-80
2023/02/18 08:32:51;;;;;;;22.13;14.05;;;;;;;10.45;37.25;95628.66;5107881;28;20027;-80
2023/02/18 08:35:17;;;;;;;26.08;13.75;;;;;;;10.64;36.78;95633.41;5108417;28;20781;-79
2023/02/18 08:37:42;;;;;;;25.52;13.75;;;;;;;10.78;36.55;95627.66;5108207;28;20397;-79
2023/02/18 08:40:08;;;;;;;21.63;13.65;;;;;;;10.98;35.76;95622.16;5107467;28;20417;-79
2023/02/18 08:42:34;;;;;;;28.02;13.75;;;;;;;11.02;35.89;95617.38;5106183;28;20158;-79
2023/02/18 08:44:59;;;;;;;24.05;13.40;;;;;;;11.21;35.77;95629.56;5109594;28;20468;-80
2023/02/18 08:47:25;;;;;;;24.17;12.90;;;;;;;11.36;35.64;95633.59;5111661;28;20027;-79
2023/02/18 08:49:52;;;;;;;23.50;13.15;;;;;;;11.56;34.68;95632.78;5107987;28;20032;-80
2023/02/18 08:52:17;;;;;;;18.42;9.65;;;;;;;11.74;34.13;95633.16;5106988;28;20035;-79
2023/02/18 08:54:43;;;;;;;15.63;8.90;;;;;;;11.83;33.81;95635.38;5106568;28;20111;-78
2023/02/18 08:57:08;;;;;;;13.23;9.02;;;;;;;11.85;32.92;95639.25;5108748;28;20046;-79
2023/02/18 08:59:34;;;;;;;17.55;8.13;;;;;;;11.74;33.22;95635.16;5106211;28;20047;-80
2023/02/18 09:01:59;;;;;;;14.88;8.50;;;;;;;11.74;33.54;95624.13;5114710;28;20035;-79
2023/02/18 09:04:24;;;;;;;14.57;7.50;;;;;;;11.70;33.50;95626.97;5128055;28;20020;-79
2023/02/18 09:06:50;;;;;;;16.02;8.38;;;;;;;11.77;33.30;95631.53;5131702;28;20020;-78
2023/02/18 09:09:16;;;;;;;12.85;7.82;;;;;;;11.87;33.15;95631.34;5111459;28;20487;-81
2023/02/18 09:11:43;;;;;;;15.13;7.55;;;;;;;11.93;33.20;95617.84;5109284;28;20030;-80
2023/02/18 09:14:08;;;;;;;12.00;7.13;;;;;;;12.19;32.61;95619.53;5106966;28;20079;-78
2023/02/18 09:16:33;;;;;;;13.55;7.55;;;;;;;12.40;32.15;95625.75;5106826;28;20089;-78
2023/02/18 09:18:59;;;;;;;15.98;8.27;;;;;;;12.66;31.64;95629.41;5107961;28;20028;-81
2023/02/18 09:21:25;;;;;;;13.23;7.63;;;;;;;13.04;30.83;95626.84;5107410;28;20042;-80
2023/02/18 09:23:50;;;;;;;12.10;7.57;;;;;;;13.69;30.19;95620.28;5107678;28;20522;-80
2023/02/18 09:26:21;;;;;;;13.75;7.70;;;;;;;14.35;29.56;95619.38;5106426;28;20089;-79
2023/02/18 09:28:48;;;;;;;17.13;7.32;;;;;;;15.17;28.14;95610.28;5088722;28;20020;-79
2023/02/18 09:31:15;;;;;;;13.18;7.22;;;;;;;15.84;27.48;95617.34;5106276;28;20050;-79
2023/02/18 09:33:44;;;;;;;11.45;7.55;;;;;;;16.60;26.25;95610.34;5106743;27;20450;-80
2023/02/18 09:36:09;;;;;;;12.70;6.72;;;;;;;17.30;25.36;95610.53;5107459;28;20421;-80
2023/02/18 09:38:35;;;;;;;12.95;6.93;;;;;;;18.23;23.93;95616.19;5105502;28;20030;-79
2023/02/18 09:41:04;;;;;;;12.10;6.75;;;;;;;19.04;23.11;95593.13;5109471;28;20023;-80
2023/02/18 09:43:29;;;;;;;12.45;7.13;;;;;;;20.29;21.55;95619.91;5110783;28;20051;-79
2023/02/18 09:45:55;;;;;;;11.68;6.28;;;;;;;21.39;19.99;95619.13;5106495;28;20076;-81
2023/02/18 09:48:35;;;;;;;11.15;5.95;;;;;;;21.63;18.78;95615.31;5105044;28;20130;-79
2023/02/18 09:51:00;;;;;;;13.52;6.55;;;;;;;22.47;18.73;95610.41;5105854;28;20030;-80
2023/02/18 09:53:26;;;;;;;15.50;6.25;;;;;;;22.77;17.61;95613.66;5106060;28;20028;-80
2023/02/18 09:55:55;;;;;;;11.40;5.78;;;;;;;22.73;17.62;95602.69;5106293;28;20024;-79
2023/02/18 09:58:23;;;;;;;12.85;5.97;;;;;;;23.01;17.04;95599.28;5104875;28;20462;-78
2023/02/18 10:01:38;;;;;;;11.38;5.82;;;;;;;24.73;15.50;95604.84;5106330;28;20023;-80
2023/02/18 10:04:12;;;;;;;10.50;5.13;;;;;;;27.66;13.21;95602.81;5090358;28;20052;-80
2023/02/18 10:06:37;;;;;;;10.48;5.82;;;;;;;28.22;12.62;95599.16;5104307;28;20058;-80
2023/02/18 10:09:34;;;;;;;12.30;6.57;;;;;;;30.15;11.45;95584.28;5104504;28;20035;-80
2023/02/18 10:12:04;;;;;;;9.07;6.00;;;;;;;31.55;10.55;95583.41;5096153;28;20065;-81
2023/02/18 10:14:30;;;;;;;7.10;4.18;;;;;;;32.37;9.26;95583.47;5106600;28;20265;-81
2023/02/18 10:16:57;;;;;;;6.95;4.07;;;;;;;32.55;8.84;95583.66;5106139;28;20020;-81
2023/02/18 10:19:22;;;;;;;5.40;3.30;;;;;;;33.10;8.32;95594.44;5105381;28;20034;-80
2023/02/18 10:21:48;;;;;;;5.05;3.55;;;;;;;34.10;8.36;95580.59;5107586;28;20504;-81
2023/02/18 10:24:41;;;;;;;5.70;3.67;;;;;;;34.82;7.55;95583.31;5105584;28;20020;-79
2023/02/18 10:27:08;;;;;;;7.70;3.60;;;;;;;34.57;8.02;95583.31;5114783;28;20035;-80
2023/02/18 10:29:34;;;;;;;8.18;3.63;;;;;;;34.72;7.95;95581.69;5106811;28;20028;-81
2023/02/18 10:32:20;;;;;;;7.60;3.65;;;;;;;33.31;8.38;95575.00;5109288;28;20034;-80
2023/02/18 10:35:18;;;;;;;7.18;4.10;;;;;;;32.76;8.60;95584.22;5098616;28;20019;-81
2023/02/18 10:37:53;;;;;;;12.27;4.53;;;;;;;33.68;8.06;95575.47;5109191;28;20027;-81
2023/02/18 10:40:24;;;;;;;9.18;4.05;;;;;;;34.08;8.34;95564.81;5113359;28;20031;-81
2023/02/18 10:43:23;;;;;;;6.30;3.72;;;;;;;33.67;8.32;95559.72;5109170;28;20513;-81
2023/02/18 10:46:11;;;;;;;7.07;3.80;;;;;;;34.24;7.51;95541.91;5107019;28;20031;-80
2023/02/18 10:48:43;;;;;;;7.57;3.78;;;;;;;32.90;8.45;95542.84;5109288;28;20541;-80
2023/02/18 10:51:29;;;;;;;6.80;3.85;;;;;;;32.70;9.01;95552.34;5110972;28;20047;-81
2023/02/18 10:53:59;;;;;;;8.88;4.32;;;;;;;32.83;8.75;95548.53;5094907;28;20028;-80
2023/02/18 10:56:47;;;;;;;5.70;3.20;;;;;;;32.05;8.93;95552.66;5105921;28;20065;-81
2023/02/18 10:59:18;;;;;;;8.23;3.90;;;;;;;29.19;10.29;95540.31;5112775;28;20020;-79
2023/02/18 11:01:44;;;;;;;6.80;3.60;;;;;;;27.34;11.60;95526.50;5105523;28;20114;-80
2023/02/18 11:04:18;;;;;;;6.80;4.00;;;;;;;26.11;12.39;95517.38;5104113;28;20120;-80
2023/02/18 11:06:48;;;;;;;9.25;3.22;;;;;;;25.97;12.46;95520.56;5106261;28;20535;-81
2023/02/18 11:09:48;;;;;;;6.85;3.33;;;;;;;26.82;11.96;95532.53;5105772;28;20522;-80
2023/02/18 11:12:18;;;;;;;4.88;3.58;;;;;;;25.90;12.62;95528.28;5107084;28;20058;-80
2023/02/18 11:14:54;;;;;;;5.55;3.85;;;;;;;24.65;13.89;95514.66;5105402;28;20031;-80
2023/02/18 11:17:21;;;;;;;6.00;4.00;;;;;;;24.09;14.30;95509.16;5103903;28;20020;-80
2023/02/18 11:19:55;;;;;;;5.95;3.50;;;;;;;23.35;15.15;95515.25;5104740;28;20540;-80
2023/02/18 11:22:37;;;;;;;6.97;4.03;;;;;;;22.85;15.57;95508.19;5107702;28;20161;-80
2023/02/18 11:25:18;;;;;;;6.60;3.78;;;;;;;23.17;15.53;95503.22;5109379;28;20027;-79
2023/02/18 11:27:47;;;;;;;6.78;3.75;;;;;;;23.39;15.06;95496.88;5109230;28;20460;-80
2023/02/18 11:30:30;;;;;;;5.10;3.40;;;;;;;24.44;14.64;95493.78;5132087;28;20023;-79
2023/02/18 11:32:59;;;;;;;6.88;4.30;;;;;;;24.37;14.90;95475.41;5135228;28;20019;-81
2023/02/18 11:35:28;;;;;;;7.90;4.72;;;;;;;25.15;14.22;95482.75;5112247;28;20118;-81